Terminal Aerodrome Forecast
Issued by NWS Denver/Boulder, CO

Home | Current Version | Previous Version | Text Only | Print | Product List | Glossary On
Versions: 1 2 3 4 5 6 7 8 9 10 11 12 13 14 15 16 17 18 19 20 21 22 23 24 25 26 27 28 29 30 31 32 33 34 35
000
FTUS45 KBOU 182335
TAFDEN
TAF
KDEN 182335Z 1900/2006 33012KT P6SM SCT090 BKN150 BKN220
     FM190300 22010KT P6SM SCT120 BKN200
     FM190700 25009KT P6SM SCT100 OVC200
     FM191500 04008KT P6SM SCT080 OVC200
     FM191800 09012KT P6SM VCSH SCT060 OVC140
     FM192200 10010KT P6SM VCSH SCT040 OVC100=

USA.gov is the U.S. government's official web portal to all federal, state and local government web resources and services.